Sao Miguel do Anta, Brazil
Current Conditions -  °F | °C
As of 7:00 PM on Wednesday 17 Dec 2014 (Local Time) from SBBQ Reporting Station
Few Clouds Few Clouds  
Wind Chill: 75°   Ceiling: Unl
Heat Index: 75°   Visibility: 6mi
Dew Point: 61°   Wind: 6mph
Humidity: 61%   Direction: 90°E
Pressure: 30.03"   Gusts: NA
Location:  20.71°S, 42.72°W
Report Text: SBBQ 172100Z 09005KT 9999 FEW047 24/16 Q1017
Loading
Personal Weather Stations






























Interactive Weather Map New forecast layout! Learn more

10-Day Weather Forecast

Advertisements
Track Severe Weather on mobile